Time;durP1;ratioP1;P1;durP2;ratioP2;P2;SDS_P1;SDS_P2;PMS_P1;PMS_P2;Temp;Humidity;BMP_temperature;BMP_pressure;BME280_temperature;BME280_humidity;BME280_pressure;Samples;Min_cycle;Max_cycle;Signal;HPM_P1;HPM_P2
2021/12/20 00:00:34;;;;;;;39.70;24.02;;;;;;;;;;5096848;28;20119;-87
2021/12/20 00:03:01;;;;;;;37.53;20.83;;;;;;;;;;5095557;28;20024;-86
2021/12/20 00:05:30;;;;;;;33.63;19.17;;;;;;;;;;5095357;28;20024;-87
2021/12/20 00:07:56;;;;;;;27.63;18.52;;;;;;;;;;5096502;28;20051;-83
2021/12/20 00:10:25;;;;;;;29.63;18.00;;;;;;;;;;5095413;28;20374;-83
2021/12/20 00:12:51;;;;;;;28.13;17.33;;;;;;;;;;5095064;28;20052;-83
2021/12/20 00:15:18;;;;;;;25.23;16.17;;;;;;;;;;5096507;28;20032;-85
2021/12/20 00:17:44;;;;;;;29.10;15.88;;;;;;;;;;5096399;28;20467;-83
2021/12/20 00:20:13;;;;;;;30.15;17.65;;;;;;;;;;5096543;28;20028;-85
2021/12/20 00:22:40;;;;;;;26.55;17.20;;;;;;;;;;5095177;28;20028;-85
2021/12/20 00:25:06;;;;;;;27.30;16.08;;;;;;;;;;5096280;28;20031;-83
2021/12/20 00:27:33;;;;;;;25.23;16.13;;;;;;;;;;5096251;28;20032;-87
2021/12/20 00:29:59;;;;;;;26.80;16.20;;;;;;;;;;5096237;28;20024;-85
2021/12/20 00:32:28;;;;;;;30.33;17.63;;;;;;;;;;5096185;28;20434;-83
2021/12/20 00:34:56;;;;;;;25.35;17.02;;;;;;;;;;5096023;28;20032;-88
2021/12/20 00:40:23;;;;;;;26.85;15.88;;;;;;;;;;5096412;28;20055;-82
2021/12/20 00:42:50;;;;;;;25.33;17.73;;;;;;;;;;5096186;28;20020;-82
2021/12/20 00:45:17;;;;;;;27.55;17.58;;;;;;;;;;5094824;28;20478;-83
2021/12/20 00:47:45;;;;;;;29.30;17.73;;;;;;;;;;5097856;28;20020;-83
2021/12/20 00:50:12;;;;;;;28.02;17.35;;;;;;;;;;5095797;28;20032;-87
2021/12/20 00:52:39;;;;;;;26.33;16.65;;;;;;;;;;5094313;28;20422;-84
2021/12/20 00:55:05;;;;;;;26.23;16.50;;;;;;;;;;5095670;28;20028;-84
2021/12/20 00:57:32;;;;;;;27.80;16.88;;;;;;;;;;5095816;28;20031;-84
2021/12/20 00:59:58;;;;;;;26.38;17.13;;;;;;;;;;5095903;28;20028;-88
2021/12/20 01:02:24;;;;;;;29.25;18.88;;;;;;;;;;5095710;28;20488;-87
2021/12/20 01:04:53;;;;;;;29.80;17.92;;;;;;;;;;5095350;28;20376;-86
2021/12/20 01:07:19;;;;;;;26.52;17.58;;;;;;;;;;5095671;28;20030;-86
2021/12/20 01:09:45;;;;;;;26.52;16.58;;;;;;;;;;5095711;28;20034;-86
2021/12/20 01:12:18;;;;;;;25.20;16.33;;;;;;;;;;5094116;28;20140;-84
2021/12/20 01:14:44;;;;;;;26.63;17.58;;;;;;;;;;5095548;28;20036;-86
2021/12/20 01:17:10;;;;;;;26.48;17.25;;;;;;;;;;5095373;28;20085;-86
2021/12/20 01:19:37;;;;;;;28.25;17.80;;;;;;;;;;5095334;28;20053;-85
2021/12/20 01:22:04;;;;;;;29.20;18.45;;;;;;;;;;5095532;28;20470;-85
2021/12/20 01:24:31;;;;;;;31.98;20.50;;;;;;;;;;5093951;28;20064;-89
2021/12/20 01:26:57;;;;;;;33.30;21.20;;;;;;;;;;5095235;28;20024;-86
2021/12/20 01:29:23;;;;;;;31.60;21.50;;;;;;;;;;5095199;28;20464;-85
2021/12/20 01:31:50;;;;;;;30.40;19.77;;;;;;;;;;5094036;28;20039;-86
2021/12/20 01:34:16;;;;;;;30.27;20.02;;;;;;;;;;5095160;28;20394;-81
2021/12/20 01:36:42;;;;;;;25.67;16.98;;;;;;;;;;5093962;28;20039;-87
2021/12/20 01:39:09;;;;;;;25.10;17.25;;;;;;;;;;5095283;28;20035;-85
2021/12/20 01:41:39;;;;;;;27.67;16.88;;;;;;;;;;5095125;28;20024;-84
2021/12/20 01:44:08;;;;;;;26.67;17.25;;;;;;;;;;5094932;28;20016;-80
2021/12/20 01:46:34;;;;;;;23.80;16.02;;;;;;;;;;5093695;28;20028;-87
2021/12/20 01:49:04;;;;;;;24.35;16.60;;;;;;;;;;5094841;28;20024;-85
2021/12/20 01:51:45;;;;;;;26.98;17.30;;;;;;;;;;5093521;28;20071;-85
2021/12/20 01:54:12;;;;;;;26.25;16.55;;;;;;;;;;5094335;28;20040;-88
2021/12/20 01:56:41;;;;;;;24.25;15.82;;;;;;;;;;5093431;28;20032;-84
2021/12/20 01:59:08;;;;;;;22.75;15.32;;;;;;;;;;5094560;28;20024;-87
2021/12/20 02:01:34;;;;;;;24.77;15.63;;;;;;;;;;5094016;28;20028;-83
2021/12/20 02:04:07;;;;;;;28.63;19.13;;;;;;;;;;5094106;28;20582;-83
2021/12/20 02:06:40;;;;;;;28.95;18.35;;;;;;;;;;5093084;28;20032;-84
2021/12/20 02:09:19;;;;;;;28.30;19.03;;;;;;;;;;5094291;28;20112;-84
2021/12/20 02:11:47;;;;;;;30.73;22.90;;;;;;;;;;5093183;28;20024;-83
2021/12/20 02:14:14;;;;;;;28.83;21.33;;;;;;;;;;5094101;28;20070;-83
2021/12/20 02:16:41;;;;;;;28.23;20.70;;;;;;;;;;5093026;28;20029;-83
2021/12/20 02:19:09;;;;;;;26.65;17.35;;;;;;;;;;5093991;28;20028;-87
2021/12/20 02:21:39;;;;;;;28.88;20.98;;;;;;;;;;5092755;28;20032;-87
2021/12/20 02:24:05;;;;;;;30.70;20.65;;;;;;;;;;5092977;28;20024;-85
2021/12/20 02:26:31;;;;;;;34.05;23.50;;;;;;;;;;5094150;28;20039;-86
2021/12/20 02:29:03;;;;;;;34.13;21.05;;;;;;;;;;5093375;28;20169;-87
2021/12/20 02:39:44;;;;;;;29.95;19.33;;;;;;;;;;5094046;28;20128;-88
2021/12/20 02:42:14;;;;;;;30.30;19.48;;;;;;;;;;5093827;28;20027;-86
2021/12/20 02:45:06;;;;;;;28.17;18.58;;;;;;;;;;5092609;28;20032;-85
2021/12/20 02:47:32;;;;;;;29.83;20.23;;;;;;;;;;5094006;28;20028;-87
2021/12/20 02:49:58;;;;;;;28.05;19.25;;;;;;;;;;5093874;28;20024;-83
2021/12/20 02:52:31;;;;;;;27.33;18.95;;;;;;;;;;5093646;28;20028;-86
2021/12/20 02:55:00;;;;;;;27.75;17.85;;;;;;;;;;5093881;28;20473;-84
2021/12/20 02:57:26;;;;;;;27.25;17.35;;;;;;;;;;5092489;28;20063;-85
2021/12/20 02:59:52;;;;;;;24.27;16.00;;;;;;;;;;5092653;28;20020;-86
2021/12/20 03:02:19;;;;;;;27.13;18.45;;;;;;;;;;5093649;28;20036;-86
2021/12/20 03:04:48;;;;;;;23.33;16.25;;;;;;;;;;5093888;28;20059;-89
2021/12/20 03:07:20;;;;;;;32.90;20.48;;;;;;;;;;5092553;28;20149;-89
2021/12/20 03:09:52;;;;;;;30.88;20.80;;;;;;;;;;5092625;28;20471;-87
2021/12/20 03:12:18;;;;;;;35.72;20.83;;;;;;;;;;5092563;28;20075;-88
2021/12/20 03:14:48;;;;;;;54.25;29.23;;;;;;;;;;5095077;28;20478;-85
2021/12/20 03:17:14;;;;;;;29.40;18.98;;;;;;;;;;5099781;28;20052;-82
2021/12/20 03:19:40;;;;;;;25.70;17.85;;;;;;;;;;5097908;28;20028;-83
2021/12/20 03:22:10;;;;;;;27.42;18.65;;;;;;;;;;5096321;28;20101;-84
2021/12/20 03:24:36;;;;;;;27.92;18.48;;;;;;;;;;5097558;28;20026;-83
2021/12/20 03:27:02;;;;;;;30.98;20.25;;;;;;;;;;5096314;28;20425;-81
2021/12/20 03:29:29;;;;;;;29.10;19.45;;;;;;;;;;5096481;28;20024;-83
2021/12/20 03:31:55;;;;;;;27.55;18.27;;;;;;;;;;5097599;28;20379;-85
2021/12/20 03:34:21;;;;;;;30.10;19.80;;;;;;;;;;5097323;28;20162;-88
2021/12/20 03:36:47;;;;;;;25.30;16.95;;;;;;;;;;5096224;28;20024;-88
2021/12/20 03:39:14;;;;;;;28.38;19.10;;;;;;;;;;5097525;28;20081;-84
2021/12/20 03:41:40;;;;;;;31.00;19.23;;;;;;;;;;5097219;28;20106;-84
2021/12/20 03:44:07;;;;;;;30.98;19.77;;;;;;;;;;5097381;28;20031;-85
2021/12/20 03:46:35;;;;;;;28.13;20.65;;;;;;;;;;5096084;28;20471;-86
2021/12/20 03:49:02;;;;;;;29.05;19.35;;;;;;;;;;5095736;28;20372;-85
2021/12/20 03:51:30;;;;;;;31.42;20.73;;;;;;;;;;5096945;28;20028;-82
2021/12/20 03:53:56;;;;;;;34.47;21.15;;;;;;;;;;5096566;28;20056;-83
2021/12/20 03:56:23;;;;;;;38.28;24.58;;;;;;;;;;5095640;28;20024;-85
2021/12/20 03:58:49;;;;;;;42.97;25.33;;;;;;;;;;5097073;28;20028;-86
2021/12/20 04:01:15;;;;;;;36.42;23.05;;;;;;;;;;5096704;28;20038;-88
2021/12/20 04:03:44;;;;;;;33.45;22.17;;;;;;;;;;5096713;28;20028;-83
2021/12/20 04:06:13;;;;;;;36.55;22.90;;;;;;;;;;5096979;28;20085;-88
2021/12/20 04:08:43;;;;;;;41.42;25.02;;;;;;;;;;5096937;28;20028;-85
2021/12/20 04:11:11;;;;;;;40.30;24.75;;;;;;;;;;5095460;28;20031;-83
2021/12/20 04:13:37;;;;;;;39.33;24.85;;;;;;;;;;5096594;28;20039;-86
2021/12/20 04:16:07;;;;;;;38.10;23.90;;;;;;;;;;5096554;28;20032;-86
2021/12/20 04:18:34;;;;;;;37.03;23.00;;;;;;;;;;5095186;28;20085;-84
2021/12/20 04:21:00;;;;;;;36.63;22.98;;;;;;;;;;5095002;28;20027;-83
2021/12/20 04:23:26;;;;;;;30.88;20.38;;;;;;;;;;5096198;28;20032;-83
2021/12/20 04:25:52;;;;;;;35.22;22.85;;;;;;;;;;5095985;28;20025;-87
2021/12/20 04:28:18;;;;;;;38.85;24.27;;;;;;;;;;5095066;28;20492;-87
2021/12/20 04:30:45;;;;;;;35.78;23.23;;;;;;;;;;5096242;28;20027;-82
2021/12/20 04:33:11;;;;;;;32.35;21.10;;;;;;;;;;5095911;28;20052;-87
2021/12/20 04:35:37;;;;;;;34.65;21.83;;;;;;;;;;5096142;28;20085;-81
2021/12/20 04:38:08;;;;;;;31.15;21.02;;;;;;;;;;5096089;28;20024;-86
2021/12/20 04:40:34;;;;;;;29.67;19.73;;;;;;;;;;5095808;28;20024;-86
2021/12/20 04:43:01;;;;;;;31.35;21.27;;;;;;;;;;5095623;28;20463;-84
2021/12/20 04:45:27;;;;;;;47.22;32.25;;;;;;;;;;5096039;28;20489;-84
2021/12/20 04:47:54;;;;;;;43.50;27.88;;;;;;;;;;5094598;28;20031;-83
2021/12/20 04:50:22;;;;;;;36.83;23.20;;;;;;;;;;5095833;28;20024;-84
2021/12/20 04:52:49;;;;;;;31.63;21.13;;;;;;;;;;5094734;28;20036;-85
2021/12/20 04:55:15;;;;;;;25.73;17.55;;;;;;;;;;5094548;28;20067;-83
2021/12/20 04:57:43;;;;;;;31.92;19.55;;;;;;;;;;5095761;28;20471;-84
2021/12/20 05:00:11;;;;;;;25.60;17.13;;;;;;;;;;5095816;28;20031;-86
2021/12/20 05:02:37;;;;;;;27.05;17.65;;;;;;;;;;5095616;28;20079;-79
2021/12/20 05:05:04;;;;;;;28.80;18.10;;;;;;;;;;5095379;28;20076;-80
2021/12/20 05:07:30;;;;;;;28.90;17.63;;;;;;;;;;5095801;28;20024;-80
2021/12/20 05:10:02;;;;;;;46.28;29.00;;;;;;;;;;5095312;28;20028;-81
2021/12/20 05:12:28;;;;;;;46.28;26.73;;;;;;;;;;5095113;28;20077;-77
2021/12/20 05:14:54;;;;;;;41.78;26.77;;;;;;;;;;5093789;28;20028;-78
2021/12/20 05:17:26;;;;;;;35.22;23.65;;;;;;;;;;5095465;28;20352;-79
2021/12/20 05:19:52;;;;;;;29.77;18.83;;;;;;;;;;5095175;28;20070;-78
2021/12/20 05:22:19;;;;;;;31.48;22.10;;;;;;;;;;5095153;28;20038;-78
2021/12/20 05:24:48;;;;;;;29.05;18.42;;;;;;;;;;5095133;28;20052;-78
2021/12/20 05:27:14;;;;;;;27.00;17.00;;;;;;;;;;5095284;28;20058;-80
2021/12/20 05:29:40;;;;;;;25.42;16.63;;;;;;;;;;5095067;28;20459;-80
2021/12/20 05:32:07;;;;;;;27.95;17.88;;;;;;;;;;5093813;28;20567;-78
2021/12/20 05:34:34;;;;;;;25.05;17.00;;;;;;;;;;5093816;28;20081;-78
2021/12/20 05:37:00;;;;;;;25.92;17.70;;;;;;;;;;5094533;28;20063;-80
2021/12/20 05:39:27;;;;;;;25.67;17.52;;;;;;;;;;5094822;28;20070;-78
2021/12/20 05:41:53;;;;;;;28.05;18.27;;;;;;;;;;5093850;28;20027;-78
2021/12/20 05:44:19;;;;;;;28.48;19.63;;;;;;;;;;5094714;28;20024;-79
2021/12/20 05:46:45;;;;;;;32.78;21.13;;;;;;;;;;5094280;28;20030;-81
2021/12/20 05:49:11;;;;;;;30.05;19.63;;;;;;;;;;5093754;28;20114;-79
2021/12/20 05:51:37;;;;;;;30.90;20.92;;;;;;;;;;5093613;28;20089;-80
2021/12/20 05:54:04;;;;;;;37.17;22.95;;;;;;;;;;5093163;28;20060;-78
2021/12/20 05:56:30;;;;;;;34.08;23.27;;;;;;;;;;5093606;28;20028;-80
2021/12/20 05:58:56;;;;;;;29.35;17.98;;;;;;;;;;5093517;28;20031;-81
2021/12/20 06:01:22;;;;;;;28.88;19.30;;;;;;;;;;5093476;28;20077;-80
2021/12/20 06:03:48;;;;;;;34.70;23.33;;;;;;;;;;5093454;28;20069;-80
2021/12/20 06:06:17;;;;;;;46.88;27.80;;;;;;;;;;5092062;28;20379;-79
2021/12/20 06:08:43;;;;;;;33.85;23.00;;;;;;;;;;5093198;28;20360;-79
2021/12/20 06:11:09;;;;;;;30.55;19.33;;;;;;;;;;5093357;28;20062;-77
2021/12/20 06:13:35;;;;;;;31.05;18.10;;;;;;;;;;5093252;28;20028;-80
2021/12/20 06:16:02;;;;;;;29.73;19.58;;;;;;;;;;5093995;28;20036;-78
2021/12/20 06:18:28;;;;;;;39.22;24.58;;;;;;;;;;5093625;28;20077;-78
2021/12/20 06:20:57;;;;;;;50.70;34.08;;;;;;;;;;5093884;28;20070;-80
2021/12/20 06:23:23;;;;;;;75.60;46.45;;;;;;;;;;5093606;28;20028;-80
2021/12/20 06:25:49;;;;;;;54.38;35.33;;;;;;;;;;5092844;28;20024;-79
2021/12/20 06:28:15;;;;;;;38.22;26.92;;;;;;;;;;5091888;28;20039;-78
2021/12/20 06:30:41;;;;;;;34.70;24.10;;;;;;;;;;5092897;28;20032;-79
2021/12/20 06:33:11;;;;;;;37.92;25.88;;;;;;;;;;5092057;28;20024;-78
2021/12/20 06:35:40;;;;;;;30.80;21.65;;;;;;;;;;5092306;28;20767;-78
2021/12/20 06:38:08;;;;;;;34.28;21.08;;;;;;;;;;5091932;28;20028;-79
2021/12/20 06:40:34;;;;;;;33.83;21.58;;;;;;;;;;5092241;28;20055;-79
2021/12/20 06:43:01;;;;;;;31.73;22.25;;;;;;;;;;5093007;28;20483;-81
2021/12/20 06:45:35;;;;;;;36.05;24.67;;;;;;;;;;5089111;28;20028;-80
2021/12/20 06:48:01;;;;;;;41.88;27.65;;;;;;;;;;5091203;28;20032;-80
2021/12/20 06:50:33;;;;;;;43.55;28.95;;;;;;;;;;5090095;28;20028;-79
2021/12/20 06:53:00;;;;;;;38.30;25.15;;;;;;;;;;5091487;28;20056;-80
2021/12/20 06:55:26;;;;;;;34.00;23.52;;;;;;;;;;5074266;28;20452;-82
2021/12/20 06:57:52;;;;;;;33.00;20.27;;;;;;;;;;5089910;28;20058;-79
2021/12/20 07:00:18;;;;;;;36.15;23.48;;;;;;;;;;5091297;28;20028;-84
2021/12/20 07:02:47;;;;;;;50.33;34.90;;;;;;;;;;5088880;28;20131;-83
2021/12/20 07:05:13;;;;;;;45.28;28.80;;;;;;;;;;5092360;28;20115;-79
2021/12/20 07:07:39;;;;;;;44.15;30.02;;;;;;;;;;5091982;28;20063;-78
2021/12/20 07:10:09;;;;;;;36.55;24.33;;;;;;;;;;5093360;28;20089;-79
2021/12/20 07:12:37;;;;;;;30.17;20.52;;;;;;;;;;5092830;28;20028;-82
2021/12/20 07:15:04;;;;;;;30.42;20.20;;;;;;;;;;5091621;28;20101;-83
2021/12/20 07:17:30;;;;;;;28.67;19.30;;;;;;;;;;5093044;28;20106;-79
2021/12/20 07:19:58;;;;;;;17.98;11.38;;;;;;;;;;5092508;28;20548;-78
2021/12/20 07:22:24;;;;;;;18.65;12.65;;;;;;;;;;5092965;28;20107;-67
2021/12/20 07:24:51;;;;;;;20.45;13.63;;;;;;;;;;5091371;28;20451;-79
2021/12/20 07:27:20;;;;;;;24.15;14.93;;;;;;;;;;5086126;28;20032;-82
2021/12/20 07:29:46;;;;;;;24.05;15.10;;;;;;;;;;5089009;28;20051;-80
2021/12/20 07:32:12;;;;;;;29.85;18.50;;;;;;;;;;5089839;28;20436;-80
2021/12/20 07:34:39;;;;;;;30.63;19.15;;;;;;;;;;5090029;28;20040;-82
2021/12/20 07:37:05;;;;;;;23.35;15.07;;;;;;;;;;5090422;28;20032;-77
2021/12/20 07:39:33;;;;;;;24.20;15.95;;;;;;;;;;5091182;28;20136;-85
2021/12/20 07:41:59;;;;;;;24.90;16.17;;;;;;;;;;5091400;28;20035;-84
2021/12/20 07:44:26;;;;;;;22.13;14.57;;;;;;;;;;5090549;28;20028;-74
2021/12/20 07:46:52;;;;;;;22.35;14.48;;;;;;;;;;5090582;28;20837;-80
2021/12/20 07:49:18;;;;;;;16.95;11.98;;;;;;;;;;5091229;28;20077;-83
2021/12/20 07:51:44;;;;;;;18.10;12.95;;;;;;;;;;5091481;28;20028;-79
2021/12/20 07:54:10;;;;;;;22.70;15.27;;;;;;;;;;5091329;28;20511;-82
2021/12/20 07:56:36;;;;;;;28.48;19.30;;;;;;;;;;5090160;28;20043;-84
2021/12/20 07:59:03;;;;;;;24.45;16.60;;;;;;;;;;5088485;28;20028;-82
2021/12/20 08:01:31;;;;;;;20.77;13.48;;;;;;;;;;5092955;28;20034;-80
2021/12/20 08:03:57;;;;;;;21.20;14.18;;;;;;;;;;5093948;28;20032;-79
2021/12/20 08:06:23;;;;;;;29.05;20.63;;;;;;;;;;5094782;28;20024;-82
2021/12/20 08:08:49;;;;;;;29.67;20.10;;;;;;;;;;5092482;28;20382;-82
2021/12/20 08:11:15;;;;;;;29.73;18.75;;;;;;;;;;5091251;28;20059;-80
2021/12/20 08:13:44;;;;;;;24.77;17.92;;;;;;;;;;5083071;28;20091;-82
2021/12/20 08:16:13;;;;;;;22.17;14.18;;;;;;;;;;5074278;28;20037;-85
2021/12/20 08:18:44;;;;;;;14.13;9.65;;;;;;;;;;5074110;28;20064;-78
2021/12/20 08:21:11;;;;;;;18.00;11.52;;;;;;;;;;5086597;28;20062;-80
2021/12/20 08:23:38;;;;;;;14.70;10.07;;;;;;;;;;5093668;28;20035;-81
2021/12/20 08:26:04;;;;;;;17.60;10.48;;;;;;;;;;5093428;28;20035;-80
2021/12/20 08:28:30;;;;;;;15.40;9.73;;;;;;;;;;5093009;28;20414;-78
2021/12/20 08:58:19;;;;;;;11.07;8.85;;;;;;;;;;5541035;23;15152892;-79
2021/12/20 09:00:57;;;;;;;15.98;10.82;;;;;;;;;;6221804;23;20015;-79
2021/12/20 09:03:41;;;;;;;12.95;9.07;;;;;;;;;;6220966;23;20009;-76
2021/12/20 09:06:25;;;;;;;;;;;;;;;;;;;;;
2021/12/20 09:24:19;;;;;;;13.80;9.23;;;;;;;;;;5088223;27;20843;-74
2021/12/20 09:26:45;;;;;;;14.35;9.40;;;;;;;;;;5087839;28;20047;-74
2021/12/20 09:29:11;;;;;;;13.70;9.15;;;;;;;;;;5075419;28;20063;-76
2021/12/20 09:31:37;;;;;;;11.75;8.18;;;;;;;;;;5087506;28;20028;-77
2021/12/20 09:34:03;;;;;;;15.70;8.60;;;;;;;;;;5087509;28;20027;-75
2021/12/20 09:36:30;;;;;;;19.00;11.23;;;;;;;;;;5087798;28;20835;-76
2021/12/20 09:38:59;;;;;;;13.50;8.63;;;;;;;;;;5087965;28;20540;-76
2021/12/20 09:42:00;;;;;;;10.55;5.22;;;;;;;;;;5087212;28;20042;-77
2021/12/20 09:44:16;;;;;;;12.93;8.95;;;;;;;;;;5085015;28;20024;-76
2021/12/20 09:46:42;;;;;;;11.02;7.13;;;;;;;;;;5087578;28;20020;-74
2021/12/20 09:49:09;;;;;;;7.68;5.50;;;;;;;;;;5088010;28;20047;-75
2021/12/20 09:51:39;;;;;;;7.70;5.55;;;;;;;;;;5087104;28;20428;-75
2021/12/20 09:54:08;;;;;;;13.70;8.82;;;;;;;;;;5087884;28;20028;-75
2021/12/20 09:56:35;;;;;;;11.95;7.78;;;;;;;;;;5085875;28;20052;-74
2021/12/20 09:59:02;;;;;;;10.30;6.75;;;;;;;;;;5087743;28;20088;-75
2021/12/20 10:01:29;;;;;;;12.68;8.52;;;;;;;;;;5087575;28;20044;-75
2021/12/20 10:03:55;;;;;;;12.15;7.30;;;;;;;;;;5087843;28;20063;-73
2021/12/20 10:06:22;;;;;;;12.43;8.43;;;;;;;;;;5087802;28;20495;-76
2021/12/20 10:08:50;;;;;;;16.92;12.05;;;;;;;;;;5086897;28;20060;-73
2021/12/20 10:11:19;;;;;;;6.78;5.43;;;;;;;;;;5084971;28;20025;-76
2021/12/20 10:13:45;;;;;;;11.82;7.38;;;;;;;;;;5087092;28;20036;-76
2021/12/20 10:16:30;;;;;;;7.97;5.57;;;;;;;;;;5085996;28;20552;-75
2021/12/20 10:18:56;;;;;;;13.25;8.25;;;;;;;;;;5082297;28;20028;-76
2021/12/20 10:21:33;;;;;;;10.82;6.63;;;;;;;;;;5083119;28;20063;-75
2021/12/20 10:23:59;;;;;;;9.25;6.15;;;;;;;;;;5077700;28;20048;-72
2021/12/20 10:26:27;;;;;;;9.77;5.03;;;;;;;;;;5072999;28;20021;-75
2021/12/20 10:28:54;;;;;;;10.05;7.80;;;;;;;;;;5072486;28;20078;-76
2021/12/20 10:31:24;;;;;;;8.38;4.80;;;;;;;;;;5072245;28;20028;-74
2021/12/20 10:36:54;;;;;;;5.88;3.70;;;;;;;;;;5074029;28;20039;-77
2021/12/20 10:39:41;;;;;;;9.27;6.72;;;;;;;;;;5070668;28;20032;-76
2021/12/20 10:42:19;;;;;;;11.68;7.20;;;;;;;;;;5069145;28;20033;-75
2021/12/20 10:45:05;;;;;;;7.25;5.25;;;;;;;;;;5070532;28;20021;-76
2021/12/20 10:47:34;;;;;;;8.10;4.65;;;;;;;;;;5064947;28;20021;-74
2021/12/20 10:50:19;;;;;;;7.88;4.38;;;;;;;;;;5072637;28;20052;-75
2021/12/20 10:52:45;;;;;;;7.72;3.80;;;;;;;;;;5068323;28;20071;-75
2021/12/20 10:55:11;;;;;;;10.43;7.03;;;;;;;;;;5072474;28;20063;-74
2021/12/20 10:57:38;;;;;;;6.15;3.92;;;;;;;;;;5068039;28;20111;-76
2021/12/20 11:00:22;;;;;;;10.48;6.00;;;;;;;;;;5070902;28;20028;-74
2021/12/20 11:11:14;;;;;;;;;;;;;;;;;;5073358;28;20047;-78
2021/12/20 11:13:43;;;;;;;8.07;3.97;;;;;;;;;;5071236;28;19926;-76
2021/12/20 11:16:28;;;;;;;6.32;3.28;;;;;;;;;;5072418;28;20050;-76
2021/12/20 11:19:09;;;;;;;10.30;5.63;;;;;;;;;;5071991;28;20086;-75
2021/12/20 11:21:36;;;;;;;6.85;4.25;;;;;;;;;;5069090;28;20121;-76
2021/12/20 11:24:02;;;;;;;7.05;3.92;;;;;;;;;;5071728;28;20048;-75
2021/12/20 11:26:28;;;;;;;7.80;3.58;;;;;;;;;;5072096;28;20039;-76
2021/12/20 11:28:58;;;;;;;6.43;2.72;;;;;;;;;;5071847;28;20032;-77
2021/12/20 11:31:24;;;;;;;6.18;4.30;;;;;;;;;;5072582;28;20078;-77
2021/12/20 11:33:53;;;;;;;4.53;3.50;;;;;;;;;;5071027;28;20040;-79
2021/12/20 11:36:19;;;;;;;3.92;2.75;;;;;;;;;;5070361;28;20064;-75
2021/12/20 11:38:45;;;;;;;6.05;2.90;;;;;;;;;;5072032;28;20029;-74
2021/12/20 11:41:13;;;;;;;9.25;4.75;;;;;;;;;;5071344;28;20792;-76
2021/12/20 11:43:40;;;;;;;6.10;3.88;;;;;;;;;;5072287;28;20055;-76
2021/12/20 11:46:07;;;;;;;9.27;5.03;;;;;;;;;;5071866;28;20089;-75
2021/12/20 11:48:38;;;;;;;9.95;4.68;;;;;;;;;;5071417;28;20039;-77
2021/12/20 11:51:04;;;;;;;9.20;5.53;;;;;;;;;;5068596;28;20425;-76
2021/12/20 11:53:38;;;;;;;4.88;3.72;;;;;;;;;;5071979;28;20031;-77
2021/12/20 11:56:07;;;;;;;3.30;1.97;;;;;;;;;;5071183;28;20485;-79
2021/12/20 11:58:34;;;;;;;6.15;3.47;;;;;;;;;;5070749;28;20032;-77
2021/12/20 12:01:15;;;;;;;9.88;5.05;;;;;;;;;;5066936;28;20029;-76
2021/12/20 12:03:53;;;;;;;10.18;4.03;;;;;;;;;;5062837;28;20115;-75
2021/12/20 12:06:27;;;;;;;11.07;7.03;;;;;;;;;;5064737;28;20033;-77
2021/12/20 12:08:59;;;;;;;8.32;5.60;;;;;;;;;;5070985;28;20399;-77
2021/12/20 12:11:27;;;;;;;11.82;5.47;;;;;;;;;;5071496;28;20085;-75
2021/12/20 12:14:03;;;;;;;6.13;3.47;;;;;;;;;;5071036;28;20032;-76
2021/12/20 12:16:48;;;;;;;10.23;7.95;;;;;;;;;;5070504;28;20032;-74
2021/12/20 12:19:34;;;;;;;4.55;3.17;;;;;;;;;;5049548;28;20032;-81
2021/12/20 12:22:00;;;;;;;6.30;4.60;;;;;;;;;;5050066;28;20029;-78
2021/12/20 12:24:49;;;;;;;11.15;6.53;;;;;;;;;;5050425;28;20075;-77
2021/12/20 12:27:33;;;;;;;7.18;5.03;;;;;;;;;;5050165;28;20429;-78
2021/12/20 12:30:11;;;;;;;5.30;4.50;;;;;;;;;;5068824;28;20055;-76
2021/12/20 12:32:38;;;;;;;5.57;4.68;;;;;;;;;;5070162;28;20510;-75
2021/12/20 12:35:05;;;;;;;9.82;5.40;;;;;;;;;;5069529;28;20074;-77
2021/12/20 12:37:37;;;;;;;7.28;5.07;;;;;;;;;;5069257;28;20060;-75
2021/12/20 12:40:31;;;;;;;5.50;4.15;;;;;;;;;;5059642;28;20123;-78
2021/12/20 12:42:58;;;;;;;8.15;5.13;;;;;;;;;;5066704;28;20106;-80
2021/12/20 12:45:43;;;;;;;8.13;5.85;;;;;;;;;;5067075;28;20372;-75
2021/12/20 12:48:09;;;;;;;;;;;;;;;;;;5066841;28;20478;-77
2021/12/20 12:50:35;;;;;;;6.43;5.03;;;;;;;;;;5070397;28;19923;-77
2021/12/20 12:53:18;;;;;;;6.53;5.03;;;;;;;;;;5070905;28;20398;-77
2021/12/20 12:55:47;;;;;;;9.60;6.10;;;;;;;;;;5069317;28;20035;-78
2021/12/20 12:58:20;;;;;;;7.93;6.15;;;;;;;;;;5069130;28;20048;-77
2021/12/20 13:00:55;;;;;;;6.60;4.70;;;;;;;;;;5071956;28;20475;-77
2021/12/20 13:03:22;;;;;;;7.05;4.40;;;;;;;;;;5070081;28;20036;-77
2021/12/20 13:05:48;;;;;;;9.07;5.60;;;;;;;;;;5069268;28;20035;-76
2021/12/20 13:08:14;;;;;;;7.88;5.20;;;;;;;;;;5070675;28;20100;-82
2021/12/20 13:10:42;;;;;;;9.88;6.13;;;;;;;;;;5069206;28;20537;-81
2021/12/20 13:13:16;;;;;;;6.75;4.40;;;;;;;;;;5069816;28;20025;-78
2021/12/20 13:15:47;;;;;;;6.55;4.95;;;;;;;;;;5067929;28;20033;-78
2021/12/20 13:18:20;;;;;;;6.28;4.85;;;;;;;;;;5070398;28;20032;-78
2021/12/20 13:21:08;;;;;;;10.18;6.88;;;;;;;;;;5069148;28;20036;-75
2021/12/20 13:23:36;;;;;;;9.70;6.30;;;;;;;;;;5069791;28;20135;-75
2021/12/20 13:26:17;;;;;;;7.75;5.40;;;;;;;;;;5070049;28;20073;-79
2021/12/20 13:28:44;;;;;;;11.30;6.80;;;;;;;;;;5068913;28;20123;-74
2021/12/20 13:31:13;;;;;;;7.90;5.97;;;;;;;;;;5070215;28;20107;-74
2021/12/20 13:33:40;;;;;;;7.20;4.03;;;;;;;;;;5070056;28;20494;-77
2021/12/20 13:36:13;;;;;;;6.95;4.50;;;;;;;;;;5069000;28;20024;-76
2021/12/20 13:38:48;;;;;;;9.30;8.30;;;;;;;;;;5069749;28;20027;-84
2021/12/20 13:41:21;;;;;;;8.55;5.80;;;;;;;;;;5070873;28;20028;-79
2021/12/20 13:43:54;;;;;;;8.52;5.78;;;;;;;;;;5069678;28;20078;-76
2021/12/20 13:46:27;;;;;;;6.60;5.03;;;;;;;;;;5070539;28;20016;-75
2021/12/20 13:49:11;;;;;;;7.75;5.35;;;;;;;;;;5071357;28;20032;-75
2021/12/20 13:51:39;;;;;;;15.82;7.53;;;;;;;;;;5071112;28;20497;-75
2021/12/20 13:54:14;;;;;;;8.40;5.35;;;;;;;;;;5069560;28;20024;-76
2021/12/20 13:56:43;;;;;;;16.52;9.27;;;;;;;;;;5070740;28;20044;-75
2021/12/20 13:59:09;;;;;;;8.43;5.70;;;;;;;;;;5073025;28;20050;-79
2021/12/20 14:01:36;;;;;;;9.32;6.28;;;;;;;;;;5074813;28;20020;-76
2021/12/20 14:04:04;;;;;;;7.65;5.03;;;;;;;;;;5075209;28;20028;-74
2021/12/20 14:06:49;;;;;;;7.80;5.13;;;;;;;;;;5075597;28;20033;-73
2021/12/20 14:09:35;;;;;;;11.35;7.07;;;;;;;;;;5074430;28;20051;-76
2021/12/20 14:12:20;;;;;;;5.15;3.35;;;;;;;;;;5074612;28;20064;-73
2021/12/20 14:14:45;;;;;;;;;;;;;;;;;;5075463;28;20017;-73
2021/12/20 14:17:12;;;;;;;12.30;8.60;;;;;;;;;;5075341;28;19904;-75
2021/12/20 14:19:57;;;;;;;9.55;6.65;;;;;;;;;;5074423;28;20051;-78
2021/12/20 14:22:26;;;;;;;12.23;7.00;;;;;;;;;;5074719;28;20119;-75
2021/12/20 14:25:10;;;;;;;10.27;8.07;;;;;;;;;;5074470;28;20127;-74
2021/12/20 14:27:36;;;;;;;;;;;;;;;;;;5075337;28;20028;-76
2021/12/20 14:30:20;;;;;;;8.55;5.18;;;;;;;;;;5074724;28;19909;-76
2021/12/20 14:32:56;;;;;;;12.27;7.90;;;;;;;;;;5074027;28;20032;-75
2021/12/20 14:35:26;;;;;;;12.10;7.80;;;;;;;;;;5074645;28;20036;-75
2021/12/20 14:37:52;;;;;;;8.30;6.43;;;;;;;;;;5074620;28;20093;-76
2021/12/20 14:40:37;;;;;;;9.02;6.95;;;;;;;;;;5074643;28;20108;-75
2021/12/20 14:43:07;;;;;;;12.15;8.68;;;;;;;;;;5074010;28;20039;-75
2021/12/20 14:45:34;;;;;;;14.10;9.43;;;;;;;;;;5074748;28;20107;-77
2021/12/20 14:48:22;;;;;;;15.30;10.65;;;;;;;;;;5074007;28;20434;-76
2021/12/20 14:50:49;;;;;;;18.27;10.77;;;;;;;;;;5074201;28;20029;-76
2021/12/20 14:53:20;;;;;;;20.90;13.95;;;;;;;;;;5074340;28;20119;-77
2021/12/20 14:55:49;;;;;;;14.77;9.25;;;;;;;;;;5074184;28;20025;-76
2021/12/20 14:58:15;;;;;;;18.50;10.57;;;;;;;;;;5073085;28;20069;-76
2021/12/20 15:00:46;;;;;;;12.50;9.00;;;;;;;;;;5074133;28;20032;-76
2021/12/20 15:03:16;;;;;;;16.75;10.52;;;;;;;;;;5074073;28;20047;-76
2021/12/20 15:05:45;;;;;;;16.27;12.68;;;;;;;;;;5073112;28;20127;-75
2021/12/20 15:08:13;;;;;;;16.15;10.45;;;;;;;;;;5074008;28;20036;-76
2021/12/20 15:10:39;;;;;;;13.68;9.93;;;;;;;;;;5072461;28;20032;-76
2021/12/20 15:13:05;;;;;;;18.40;13.32;;;;;;;;;;5073930;28;20090;-75
2021/12/20 15:15:34;;;;;;;14.40;8.52;;;;;;;;;;5074397;28;20027;-76
2021/12/20 15:18:00;;;;;;;14.05;9.57;;;;;;;;;;5073670;28;20028;-76
2021/12/20 15:20:26;;;;;;;19.48;12.50;;;;;;;;;;5073885;28;20029;-76
2021/12/20 15:22:52;;;;;;;11.80;8.25;;;;;;;;;;5072728;28;20157;-76
2021/12/20 15:25:21;;;;;;;10.38;6.68;;;;;;;;;;5073140;28;20028;-75
2021/12/20 15:27:47;;;;;;;10.40;6.57;;;;;;;;;;5073112;28;20070;-76
2021/12/20 15:30:14;;;;;;;18.50;12.70;;;;;;;;;;5073280;28;20032;-76
2021/12/20 15:32:40;;;;;;;22.70;15.20;;;;;;;;;;5072752;28;20032;-75
2021/12/20 15:35:07;;;;;;;19.52;13.82;;;;;;;;;;5073350;28;20024;-76
2021/12/20 15:37:33;;;;;;;12.65;10.02;;;;;;;;;;5072666;28;20130;-76
2021/12/20 15:39:59;;;;;;;15.77;10.45;;;;;;;;;;5073112;28;20059;-76
2021/12/20 15:42:31;;;;;;;13.57;9.18;;;;;;;;;;5072877;28;20446;-76